Portada
METAR-TAF:

METAR-TAF

Aeroports :

Bloomington-Normal, Illinois, Estats Units d'Amèrica

latitud: 40-29N, longitud: 088-55W, altitud: 267 m

Observació

L'informe es va fer fa 19 minuts, a les 12:56 UTC
Vent 9 kt del Oest/Sud-Oest
Temperatura 26°C
Humitat 74%
Pressió 1026 hPa
Visibilitat: 16.1 km
Cel clar

METAR: KBMI 201256Z 24009KT 10SM CLR 26/21 A3031 RMK AO2 SLP255 T02610211

Hora: 08:15 (13:15 UTC)

Pronòstic

L'informe es va fer fa 1 hora i 50 minuts, a les 11:25 UTC
Pronòstic vàlid del 20 a les 12 UTC al 21 a les 12 UTC
Vent 6 kt del Sud-Oest
Visibilitat: 10 km
Núvols disperses a una alçada de 4000 ft
A partir de les 21 a les 0000 UTC
Vent 3 kt amb direcció variable
Visibilitat: 10 km
Núvols disperses a una alçada de 25000 ft

TAF: KBMI 201125Z 2012/2112 22006KT P6SM SCT040 FM210000 VRB03KT P6SM SCT250

Observacions i pronòstics meteorològics de més de 4000 aeroports (METAR i TAF).

Les estacions disponibles són els punts grocs i vermells al mapa.

Posi el ratolí al punt desitjat per veure el nom de l'estació.

Feu clic per veure les observacions i els pronòstics meteorològics.

Per canviar el mapa: feu clic els botons verds amb una creu de color negre per apropar; al botó verd amb un guió per allunyar la imatge; o en les fletxes verdes per a mapes adjacents.


METAR-TAF: